sensor_id;sensor_type;location;lat;lon;timestamp;P1;durP1;ratioP1;P2;durP2;ratioP2
55497;SDS011;41357;52.806;18.268;2023-03-14T00:00:35;13.75;;;5.63;;
55497;SDS011;41357;52.806;18.268;2023-03-14T00:03:01;9.75;;;4.40;;
55497;SDS011;41357;52.806;18.268;2023-03-14T00:05:27;10.75;;;4.43;;
55497;SDS011;41357;52.806;18.268;2023-03-14T00:07:54;11.82;;;5.40;;
55497;SDS011;41357;52.806;18.268;2023-03-14T00:10:20;8.63;;;4.55;;
55497;SDS011;41357;52.806;18.268;2023-03-14T00:12:46;13.45;;;4.72;;
55497;SDS011;41357;52.806;18.268;2023-03-14T00:15:12;10.07;;;4.65;;
55497;SDS011;41357;52.806;18.268;2023-03-14T00:17:38;14.55;;;5.65;;
55497;SDS011;41357;52.806;18.268;2023-03-14T00:20:05;10.05;;;5.53;;
55497;SDS011;41357;52.806;18.268;2023-03-14T00:22:39;9.43;;;4.38;;
55497;SDS011;41357;52.806;18.268;2023-03-14T00:25:06;8.25;;;4.75;;
55497;SDS011;41357;52.806;18.268;2023-03-14T00:27:32;13.90;;;5.63;;
55497;SDS011;41357;52.806;18.268;2023-03-14T00:29:59;12.93;;;6.38;;
55497;SDS011;41357;52.806;18.268;2023-03-14T00:32:25;15.75;;;7.32;;
55497;SDS011;41357;52.806;18.268;2023-03-14T00:34:51;15.35;;;8.57;;
55497;SDS011;41357;52.806;18.268;2023-03-14T00:37:17;20.13;;;8.10;;
55497;SDS011;41357;52.806;18.268;2023-03-14T00:39:44;20.02;;;8.48;;
55497;SDS011;41357;52.806;18.268;2023-03-14T00:42:10;18.33;;;9.10;;
55497;SDS011;41357;52.806;18.268;2023-03-14T00:44:36;24.10;;;11.30;;
55497;SDS011;41357;52.806;18.268;2023-03-14T00:47:02;17.50;;;9.85;;
55497;SDS011;41357;52.806;18.268;2023-03-14T00:49:28;13.15;;;6.68;;
55497;SDS011;41357;52.806;18.268;2023-03-14T00:51:54;13.48;;;6.72;;
55497;SDS011;41357;52.806;18.268;2023-03-14T00:54:21;14.63;;;7.30;;
55497;SDS011;41357;52.806;18.268;2023-03-14T00:56:47;17.33;;;8.98;;
55497;SDS011;41357;52.806;18.268;2023-03-14T00:59:14;19.00;;;9.00;;
55497;SDS011;41357;52.806;18.268;2023-03-14T01:01:41;20.85;;;9.38;;
55497;SDS011;41357;52.806;18.268;2023-03-14T01:04:07;11.68;;;7.25;;
55497;SDS011;41357;52.806;18.268;2023-03-14T01:06:33;11.77;;;5.30;;
55497;SDS011;41357;52.806;18.268;2023-03-14T01:09:00;7.60;;;3.92;;
55497;SDS011;41357;52.806;18.268;2023-03-14T01:11:27;10.50;;;4.47;;
55497;SDS011;41357;52.806;18.268;2023-03-14T01:13:54;7.90;;;4.32;;
55497;SDS011;41357;52.806;18.268;2023-03-14T01:16:21;15.40;;;7.90;;
55497;SDS011;41357;52.806;18.268;2023-03-14T01:18:47;27.17;;;13.80;;
55497;SDS011;41357;52.806;18.268;2023-03-14T01:21:15;21.17;;;11.32;;
55497;SDS011;41357;52.806;18.268;2023-03-14T01:23:41;26.08;;;12.93;;
55497;SDS011;41357;52.806;18.268;2023-03-14T01:26:08;17.25;;;9.40;;
55497;SDS011;41357;52.806;18.268;2023-03-14T01:28:35;16.75;;;8.32;;
55497;SDS011;41357;52.806;18.268;2023-03-14T01:31:05;15.13;;;8.30;;
55497;SDS011;41357;52.806;18.268;2023-03-14T01:33:31;11.25;;;6.38;;
55497;SDS011;41357;52.806;18.268;2023-03-14T01:35:57;8.15;;;4.70;;
55497;SDS011;41357;52.806;18.268;2023-03-14T01:38:23;9.52;;;3.90;;
55497;SDS011;41357;52.806;18.268;2023-03-14T01:40:49;6.43;;;3.50;;
55497;SDS011;41357;52.806;18.268;2023-03-14T01:43:16;8.25;;;3.20;;
55497;SDS011;41357;52.806;18.268;2023-03-14T01:48:28;5.38;;;2.80;;
55497;SDS011;41357;52.806;18.268;2023-03-14T01:50:57;7.88;;;3.10;;
55497;SDS011;41357;52.806;18.268;2023-03-14T01:53:24;5.30;;;2.80;;
55497;SDS011;41357;52.806;18.268;2023-03-14T01:55:50;3.20;;;2.40;;
55497;SDS011;41357;52.806;18.268;2023-03-14T01:58:18;4.57;;;2.28;;
55497;SDS011;41357;52.806;18.268;2023-03-14T02:00:45;5.60;;;2.50;;
55497;SDS011;41357;52.806;18.268;2023-03-14T02:03:15;4.10;;;2.47;;
55497;SDS011;41357;52.806;18.268;2023-03-14T02:05:42;5.22;;;2.42;;
55497;SDS011;41357;52.806;18.268;2023-03-14T02:08:13;5.43;;;2.72;;
55497;SDS011;41357;52.806;18.268;2023-03-14T02:10:58;6.90;;;2.67;;
55497;SDS011;41357;52.806;18.268;2023-03-14T02:13:24;3.97;;;2.22;;
55497;SDS011;41357;52.806;18.268;2023-03-14T02:15:51;4.05;;;2.20;;
55497;SDS011;41357;52.806;18.268;2023-03-14T02:18:17;5.05;;;2.50;;
55497;SDS011;41357;52.806;18.268;2023-03-14T02:23:11;4.78;;;2.38;;
55497;SDS011;41357;52.806;18.268;2023-03-14T02:25:45;3.22;;;2.00;;
55497;SDS011;41357;52.806;18.268;2023-03-14T02:28:14;4.63;;;2.30;;
55497;SDS011;41357;52.806;18.268;2023-03-14T02:30:40;4.95;;;2.03;;
55497;SDS011;41357;52.806;18.268;2023-03-14T02:33:08;3.85;;;2.38;;
55497;SDS011;41357;52.806;18.268;2023-03-14T02:35:40;4.40;;;1.98;;
55497;SDS011;41357;52.806;18.268;2023-03-14T02:38:29;4.47;;;1.98;;
55497;SDS011;41357;52.806;18.268;2023-03-14T02:40:53;3.13;;;1.80;;
55497;SDS011;41357;52.806;18.268;2023-03-14T02:43:19;4.18;;;1.42;;
55497;SDS011;41357;52.806;18.268;2023-03-14T02:45:45;2.85;;;1.58;;
55497;SDS011;41357;52.806;18.268;2023-03-14T02:48:14;1.75;;;1.10;;
55497;SDS011;41357;52.806;18.268;2023-03-14T02:50:40;2.38;;;1.42;;
55497;SDS011;41357;52.806;18.268;2023-03-14T02:53:07;2.50;;;1.20;;
55497;SDS011;41357;52.806;18.268;2023-03-14T02:55:33;3.63;;;1.60;;
55497;SDS011;41357;52.806;18.268;2023-03-14T02:57:59;2.20;;;1.15;;
55497;SDS011;41357;52.806;18.268;2023-03-14T03:00:25;5.03;;;1.48;;
55497;SDS011;41357;52.806;18.268;2023-03-14T03:02:51;2.45;;;1.23;;
55497;SDS011;41357;52.806;18.268;2023-03-14T03:05:17;3.47;;;1.67;;
55497;SDS011;41357;52.806;18.268;2023-03-14T03:07:43;2.50;;;1.38;;
55497;SDS011;41357;52.806;18.268;2023-03-14T03:10:10;2.75;;;1.52;;
55497;SDS011;41357;52.806;18.268;2023-03-14T03:12:36;4.80;;;1.73;;
55497;SDS011;41357;52.806;18.268;2023-03-14T03:15:02;4.82;;;1.70;;
55497;SDS011;41357;52.806;18.268;2023-03-14T03:17:28;3.15;;;1.52;;
55497;SDS011;41357;52.806;18.268;2023-03-14T03:19:54;4.10;;;1.52;;
55497;SDS011;41357;52.806;18.268;2023-03-14T03:22:20;4.88;;;1.80;;
55497;SDS011;41357;52.806;18.268;2023-03-14T03:24:47;4.93;;;1.90;;
55497;SDS011;41357;52.806;18.268;2023-03-14T03:27:13;5.20;;;2.05;;
55497;SDS011;41357;52.806;18.268;2023-03-14T03:29:39;3.65;;;2.30;;
55497;SDS011;41357;52.806;18.268;2023-03-14T03:32:05;6.10;;;2.53;;
55497;SDS011;41357;52.806;18.268;2023-03-14T03:34:31;7.85;;;2.92;;
55497;SDS011;41357;52.806;18.268;2023-03-14T03:36:57;8.45;;;2.90;;
55497;SDS011;41357;52.806;18.268;2023-03-14T03:39:23;6.30;;;3.38;;
55497;SDS011;41357;52.806;18.268;2023-03-14T03:41:49;5.65;;;2.50;;
55497;SDS011;41357;52.806;18.268;2023-03-14T03:44:16;7.55;;;3.55;;
55497;SDS011;41357;52.806;18.268;2023-03-14T03:46:42;6.57;;;3.28;;
55497;SDS011;41357;52.806;18.268;2023-03-14T03:49:08;5.82;;;3.20;;
55497;SDS011;41357;52.806;18.268;2023-03-14T03:51:34;5.10;;;3.22;;
55497;SDS011;41357;52.806;18.268;2023-03-14T03:54:00;5.20;;;2.72;;
55497;SDS011;41357;52.806;18.268;2023-03-14T03:56:26;6.72;;;3.15;;
55497;SDS011;41357;52.806;18.268;2023-03-14T03:58:52;7.07;;;3.40;;
55497;SDS011;41357;52.806;18.268;2023-03-14T04:01:18;6.60;;;3.65;;
55497;SDS011;41357;52.806;18.268;2023-03-14T04:03:44;8.90;;;5.07;;
55497;SDS011;41357;52.806;18.268;2023-03-14T04:06:11;5.55;;;3.20;;
55497;SDS011;41357;52.806;18.268;2023-03-14T04:08:38;7.88;;;4.05;;
55497;SDS011;41357;52.806;18.268;2023-03-14T04:11:05;6.43;;;3.90;;
55497;SDS011;41357;52.806;18.268;2023-03-14T04:13:32;7.75;;;4.10;;
55497;SDS011;41357;52.806;18.268;2023-03-14T04:15:58;9.93;;;4.57;;
55497;SDS011;41357;52.806;18.268;2023-03-14T04:18:24;16.95;;;9.60;;
55497;SDS011;41357;52.806;18.268;2023-03-14T04:20:51;23.00;;;14.00;;
55497;SDS011;41357;52.806;18.268;2023-03-14T04:23:17;26.90;;;17.00;;
55497;SDS011;41357;52.806;18.268;2023-03-14T04:25:44;22.63;;;13.07;;
55497;SDS011;41357;52.806;18.268;2023-03-14T04:28:10;14.68;;;8.43;;
55497;SDS011;41357;52.806;18.268;2023-03-14T04:30:36;13.50;;;7.85;;
55497;SDS011;41357;52.806;18.268;2023-03-14T04:33:02;20.10;;;10.13;;
55497;SDS011;41357;52.806;18.268;2023-03-14T04:35:30;12.95;;;6.72;;
55497;SDS011;41357;52.806;18.268;2023-03-14T04:37:56;12.70;;;6.57;;
55497;SDS011;41357;52.806;18.268;2023-03-14T04:40:22;11.65;;;6.95;;
55497;SDS011;41357;52.806;18.268;2023-03-14T04:42:48;11.23;;;5.95;;
55497;SDS011;41357;52.806;18.268;2023-03-14T04:45:14;12.20;;;6.85;;
55497;SDS011;41357;52.806;18.268;2023-03-14T04:47:40;11.25;;;5.35;;
55497;SDS011;41357;52.806;18.268;2023-03-14T04:50:07;7.97;;;4.38;;
55497;SDS011;41357;52.806;18.268;2023-03-14T04:52:33;12.10;;;4.97;;
55497;SDS011;41357;52.806;18.268;2023-03-14T04:54:59;8.60;;;4.40;;
55497;SDS011;41357;52.806;18.268;2023-03-14T04:57:25;7.47;;;4.35;;
55497;SDS011;41357;52.806;18.268;2023-03-14T04:59:51;15.90;;;8.00;;
55497;SDS011;41357;52.806;18.268;2023-03-14T05:02:17;12.85;;;6.45;;
55497;SDS011;41357;52.806;18.268;2023-03-14T05:04:43;11.85;;;6.25;;
55497;SDS011;41357;52.806;18.268;2023-03-14T05:07:09;14.02;;;8.00;;
55497;SDS011;41357;52.806;18.268;2023-03-14T05:09:36;19.63;;;11.43;;
55497;SDS011;41357;52.806;18.268;2023-03-14T05:12:02;18.52;;;8.27;;
55497;SDS011;41357;52.806;18.268;2023-03-14T05:14:28;16.20;;;6.72;;
55497;SDS011;41357;52.806;18.268;2023-03-14T05:16:54;11.57;;;5.78;;
55497;SDS011;41357;52.806;18.268;2023-03-14T05:19:20;15.05;;;8.35;;
55497;SDS011;41357;52.806;18.268;2023-03-14T05:21:46;23.50;;;13.32;;
55497;SDS011;41357;52.806;18.268;2023-03-14T05:24:12;24.25;;;10.35;;
55497;SDS011;41357;52.806;18.268;2023-03-14T05:26:38;19.30;;;10.10;;
55497;SDS011;41357;52.806;18.268;2023-03-14T05:29:04;13.32;;;7.43;;
55497;SDS011;41357;52.806;18.268;2023-03-14T05:31:30;19.05;;;8.02;;
55497;SDS011;41357;52.806;18.268;2023-03-14T05:33:57;11.93;;;6.30;;
55497;SDS011;41357;52.806;18.268;2023-03-14T05:36:23;18.85;;;9.20;;
55497;SDS011;41357;52.806;18.268;2023-03-14T05:38:49;29.33;;;13.15;;
55497;SDS011;41357;52.806;18.268;2023-03-14T05:41:15;29.33;;;15.57;;
55497;SDS011;41357;52.806;18.268;2023-03-14T05:43:41;30.65;;;15.30;;
55497;SDS011;41357;52.806;18.268;2023-03-14T05:46:07;32.22;;;15.63;;
55497;SDS011;41357;52.806;18.268;2023-03-14T05:48:33;37.13;;;17.23;;
55497;SDS011;41357;52.806;18.268;2023-03-14T05:50:59;31.63;;;17.85;;
55497;SDS011;41357;52.806;18.268;2023-03-14T05:53:25;32.25;;;18.30;;
55497;SDS011;41357;52.806;18.268;2023-03-14T05:55:52;35.00;;;17.77;;
55497;SDS011;41357;52.806;18.268;2023-03-14T05:58:18;38.15;;;19.85;;
55497;SDS011;41357;52.806;18.268;2023-03-14T06:00:45;33.22;;;18.75;;
55497;SDS011;41357;52.806;18.268;2023-03-14T06:03:11;28.85;;;14.93;;
55497;SDS011;41357;52.806;18.268;2023-03-14T06:05:37;23.10;;;12.13;;
55497;SDS011;41357;52.806;18.268;2023-03-14T06:08:03;28.17;;;15.57;;
55497;SDS011;41357;52.806;18.268;2023-03-14T06:10:29;27.67;;;16.55;;
55497;SDS011;41357;52.806;18.268;2023-03-14T06:12:55;27.70;;;15.50;;
55497;SDS011;41357;52.806;18.268;2023-03-14T06:15:22;30.75;;;16.10;;
55497;SDS011;41357;52.806;18.268;2023-03-14T06:17:48;35.08;;;17.85;;
55497;SDS011;41357;52.806;18.268;2023-03-14T06:20:14;23.63;;;13.25;;
55497;SDS011;41357;52.806;18.268;2023-03-14T06:22:40;25.88;;;13.10;;
55497;SDS011;41357;52.806;18.268;2023-03-14T06:25:07;24.65;;;11.23;;
55497;SDS011;41357;52.806;18.268;2023-03-14T06:27:33;15.73;;;8.15;;
55497;SDS011;41357;52.806;18.268;2023-03-14T06:30:00;17.85;;;8.60;;
55497;SDS011;41357;52.806;18.268;2023-03-14T06:32:26;13.50;;;7.35;;
55497;SDS011;41357;52.806;18.268;2023-03-14T06:34:52;12.80;;;5.07;;
55497;SDS011;41357;52.806;18.268;2023-03-14T06:37:18;13.98;;;4.93;;
55497;SDS011;41357;52.806;18.268;2023-03-14T06:39:44;8.50;;;4.22;;
55497;SDS011;41357;52.806;18.268;2023-03-14T06:42:10;8.73;;;4.40;;
55497;SDS011;41357;52.806;18.268;2023-03-14T06:44:37;7.13;;;4.20;;
55497;SDS011;41357;52.806;18.268;2023-03-14T06:47:03;7.18;;;4.18;;
55497;SDS011;41357;52.806;18.268;2023-03-14T06:49:29;7.88;;;4.40;;
55497;SDS011;41357;52.806;18.268;2023-03-14T06:51:55;9.43;;;4.25;;
55497;SDS011;41357;52.806;18.268;2023-03-14T06:54:21;9.25;;;5.00;;
55497;SDS011;41357;52.806;18.268;2023-03-14T06:56:47;9.90;;;4.80;;
55497;SDS011;41357;52.806;18.268;2023-03-14T06:59:13;7.95;;;4.45;;
55497;SDS011;41357;52.806;18.268;2023-03-14T07:01:40;10.75;;;5.80;;
55497;SDS011;41357;52.806;18.268;2023-03-14T07:04:06;12.48;;;6.22;;
55497;SDS011;41357;52.806;18.268;2023-03-14T07:06:32;14.55;;;6.70;;
55497;SDS011;41357;52.806;18.268;2023-03-14T07:08:59;8.85;;;4.60;;
55497;SDS011;41357;52.806;18.268;2023-03-14T07:11:25;14.45;;;7.10;;
55497;SDS011;41357;52.806;18.268;2023-03-14T07:13:51;10.90;;;5.43;;
55497;SDS011;41357;52.806;18.268;2023-03-14T07:16:19;13.38;;;7.15;;
55497;SDS011;41357;52.806;18.268;2023-03-14T07:18:45;13.07;;;5.90;;
55497;SDS011;41357;52.806;18.268;2023-03-14T07:21:11;21.45;;;9.52;;
55497;SDS011;41357;52.806;18.268;2023-03-14T07:23:38;14.18;;;8.55;;
55497;SDS011;41357;52.806;18.268;2023-03-14T07:26:04;20.73;;;9.63;;
55497;SDS011;41357;52.806;18.268;2023-03-14T07:28:31;18.05;;;10.52;;
55497;SDS011;41357;52.806;18.268;2023-03-14T07:30:57;24.27;;;10.20;;
55497;SDS011;41357;52.806;18.268;2023-03-14T07:33:23;13.80;;;6.32;;
55497;SDS011;41357;52.806;18.268;2023-03-14T07:35:50;10.85;;;5.15;;
55497;SDS011;41357;52.806;18.268;2023-03-14T07:38:16;10.55;;;4.95;;
55497;SDS011;41357;52.806;18.268;2023-03-14T07:40:42;9.32;;;4.82;;
55497;SDS011;41357;52.806;18.268;2023-03-14T07:43:08;8.43;;;4.38;;
55497;SDS011;41357;52.806;18.268;2023-03-14T07:45:34;10.02;;;4.97;;
55497;SDS011;41357;52.806;18.268;2023-03-14T07:48:00;7.32;;;4.57;;
55497;SDS011;41357;52.806;18.268;2023-03-14T07:50:27;7.97;;;4.85;;
55497;SDS011;41357;52.806;18.268;2023-03-14T07:52:54;10.05;;;4.90;;
55497;SDS011;41357;52.806;18.268;2023-03-14T07:55:20;10.32;;;4.78;;
55497;SDS011;41357;52.806;18.268;2023-03-14T07:57:46;17.10;;;7.53;;
55497;SDS011;41357;52.806;18.268;2023-03-14T08:00:13;13.20;;;5.75;;
55497;SDS011;41357;52.806;18.268;2023-03-14T08:02:39;11.48;;;4.85;;
55497;SDS011;41357;52.806;18.268;2023-03-14T08:05:06;7.25;;;4.53;;
55497;SDS011;41357;52.806;18.268;2023-03-14T08:07:32;8.98;;;3.88;;
55497;SDS011;41357;52.806;18.268;2023-03-14T08:09:58;8.82;;;3.95;;
55497;SDS011;41357;52.806;18.268;2023-03-14T08:12:24;9.63;;;3.47;;
55497;SDS011;41357;52.806;18.268;2023-03-14T08:14:50;10.15;;;4.68;;
55497;SDS011;41357;52.806;18.268;2023-03-14T08:17:16;9.75;;;4.30;;
55497;SDS011;41357;52.806;18.268;2023-03-14T08:19:42;9.02;;;4.45;;
55497;SDS011;41357;52.806;18.268;2023-03-14T08:22:09;8.38;;;4.60;;
55497;SDS011;41357;52.806;18.268;2023-03-14T08:24:35;10.43;;;4.25;;
55497;SDS011;41357;52.806;18.268;2023-03-14T08:27:01;8.63;;;5.38;;
55497;SDS011;41357;52.806;18.268;2023-03-14T08:29:27;9.50;;;4.80;;
55497;SDS011;41357;52.806;18.268;2023-03-14T08:31:53;11.85;;;5.07;;
55497;SDS011;41357;52.806;18.268;2023-03-14T08:34:20;8.20;;;4.10;;
55497;SDS011;41357;52.806;18.268;2023-03-14T08:36:46;8.95;;;4.25;;
55497;SDS011;41357;52.806;18.268;2023-03-14T08:39:12;8.65;;;4.10;;
55497;SDS011;41357;52.806;18.268;2023-03-14T08:41:38;8.15;;;3.42;;
55497;SDS011;41357;52.806;18.268;2023-03-14T08:44:09;10.00;;;3.95;;
55497;SDS011;41357;52.806;18.268;2023-03-14T08:46:38;6.05;;;3.40;;
55497;SDS011;41357;52.806;18.268;2023-03-14T08:49:04;5.35;;;3.30;;
55497;SDS011;41357;52.806;18.268;2023-03-14T08:51:31;7.68;;;3.80;;
55497;SDS011;41357;52.806;18.268;2023-03-14T08:53:57;7.32;;;3.60;;
55497;SDS011;41357;52.806;18.268;2023-03-14T08:56:23;7.18;;;3.53;;
55497;SDS011;41357;52.806;18.268;2023-03-14T08:58:49;8.88;;;3.40;;
55497;SDS011;41357;52.806;18.268;2023-03-14T09:01:15;4.60;;;2.30;;
55497;SDS011;41357;52.806;18.268;2023-03-14T09:03:44;4.53;;;2.83;;
55497;SDS011;41357;52.806;18.268;2023-03-14T09:06:12;9.35;;;2.50;;
55497;SDS011;41357;52.806;18.268;2023-03-14T09:08:38;7.68;;;3.42;;
55497;SDS011;41357;52.806;18.268;2023-03-14T09:11:06;8.23;;;3.90;;
55497;SDS011;41357;52.806;18.268;2023-03-14T09:13:32;8.75;;;2.85;;
55497;SDS011;41357;52.806;18.268;2023-03-14T09:15:58;9.77;;;4.30;;
55497;SDS011;41357;52.806;18.268;2023-03-14T09:18:24;4.40;;;2.38;;
55497;SDS011;41357;52.806;18.268;2023-03-14T09:20:50;6.38;;;2.75;;
55497;SDS011;41357;52.806;18.268;2023-03-14T09:23:17;4.95;;;2.40;;
55497;SDS011;41357;52.806;18.268;2023-03-14T09:25:43;4.32;;;2.35;;
55497;SDS011;41357;52.806;18.268;2023-03-14T09:28:09;5.28;;;2.42;;
55497;SDS011;41357;52.806;18.268;2023-03-14T09:30:35;7.85;;;3.13;;
55497;SDS011;41357;52.806;18.268;2023-03-14T09:33:01;4.38;;;2.05;;
55497;SDS011;41357;52.806;18.268;2023-03-14T09:35:27;5.50;;;3.13;;
55497;SDS011;41357;52.806;18.268;2023-03-14T09:37:53;7.22;;;3.05;;
55497;SDS011;41357;52.806;18.268;2023-03-14T09:40:19;10.70;;;2.88;;
55497;SDS011;41357;52.806;18.268;2023-03-14T09:42:52;5.57;;;2.10;;
55497;SDS011;41357;52.806;18.268;2023-03-14T09:45:27;5.78;;;1.92;;
55497;SDS011;41357;52.806;18.268;2023-03-14T09:47:55;5.95;;;3.13;;
55497;SDS011;41357;52.806;18.268;2023-03-14T09:50:21;5.10;;;2.50;;
55497;SDS011;41357;52.806;18.268;2023-03-14T09:52:51;6.45;;;3.85;;
55497;SDS011;41357;52.806;18.268;2023-03-14T09:55:20;5.35;;;3.08;;
55497;SDS011;41357;52.806;18.268;2023-03-14T09:57:47;4.13;;;1.48;;
55497;SDS011;41357;52.806;18.268;2023-03-14T10:00:16;5.45;;;2.22;;
55497;SDS011;41357;52.806;18.268;2023-03-14T10:02:43;4.57;;;2.33;;
55497;SDS011;41357;52.806;18.268;2023-03-14T10:05:15;6.45;;;3.20;;
55497;SDS011;41357;52.806;18.268;2023-03-14T10:07:42;6.75;;;3.00;;
55497;SDS011;41357;52.806;18.268;2023-03-14T10:10:26;7.25;;;3.20;;
55497;SDS011;41357;52.806;18.268;2023-03-14T10:12:57;7.93;;;2.80;;
55497;SDS011;41357;52.806;18.268;2023-03-14T10:15:27;6.05;;;2.20;;
55497;SDS011;41357;52.806;18.268;2023-03-14T10:17:58;7.80;;;2.00;;
55497;SDS011;41357;52.806;18.268;2023-03-14T10:20:34;7.40;;;2.88;;
55497;SDS011;41357;52.806;18.268;2023-03-14T10:23:05;5.47;;;1.75;;
55497;SDS011;41357;52.806;18.268;2023-03-14T10:25:32;5.00;;;1.88;;
55497;SDS011;41357;52.806;18.268;2023-03-14T10:27:59;4.60;;;1.88;;
55497;SDS011;41357;52.806;18.268;2023-03-14T10:30:39;5.40;;;2.78;;
55497;SDS011;41357;52.806;18.268;2023-03-14T10:33:19;5.82;;;1.65;;
55497;SDS011;41357;52.806;18.268;2023-03-14T10:36:31;6.88;;;2.78;;
55497;SDS011;41357;52.806;18.268;2023-03-14T10:38:34;11.68;;;4.38;;
55497;SDS011;41357;52.806;18.268;2023-03-14T10:41:01;3.60;;;2.08;;
55497;SDS011;41357;52.806;18.268;2023-03-14T10:43:31;7.90;;;2.15;;
55497;SDS011;41357;52.806;18.268;2023-03-14T10:45:59;7.35;;;2.63;;
55497;SDS011;41357;52.806;18.268;2023-03-14T10:48:37;6.45;;;2.45;;
55497;SDS011;41357;52.806;18.268;2023-03-14T10:51:07;8.65;;;2.45;;
55497;SDS011;41357;52.806;18.268;2023-03-14T10:54:19;6.40;;;2.05;;
55497;SDS011;41357;52.806;18.268;2023-03-14T10:56:20;3.63;;;1.90;;
55497;SDS011;41357;52.806;18.268;2023-03-14T10:58:48;4.45;;;2.33;;
55497;SDS011;41357;52.806;18.268;2023-03-14T11:03:47;10.02;;;4.13;;
55497;SDS011;41357;52.806;18.268;2023-03-14T11:06:20;6.95;;;2.85;;
55497;SDS011;41357;52.806;18.268;2023-03-14T11:19:17;7.65;;;3.00;;
55497;SDS011;41357;52.806;18.268;2023-03-14T11:22:03;5.45;;;2.08;;
55497;SDS011;41357;52.806;18.268;2023-03-14T11:24:38;9.82;;;2.78;;
55497;SDS011;41357;52.806;18.268;2023-03-14T11:29:49;13.23;;;2.30;;
55497;SDS011;41357;52.806;18.268;2023-03-14T11:32:23;6.57;;;2.03;;
55497;SDS011;41357;52.806;18.268;2023-03-14T11:34:53;6.53;;;2.25;;
55497;SDS011;41357;52.806;18.268;2023-03-14T11:42:27;11.00;;;4.63;;
55497;SDS011;41357;52.806;18.268;2023-03-14T11:44:54;6.90;;;3.40;;
55497;SDS011;41357;52.806;18.268;2023-03-14T11:47:22;9.00;;;3.55;;
55497;SDS011;41357;52.806;18.268;2023-03-14T11:52:24;10.52;;;4.90;;
55497;SDS011;41357;52.806;18.268;2023-03-14T11:54:52;8.15;;;4.55;;
55497;SDS011;41357;52.806;18.268;2023-03-14T11:57:22;9.82;;;4.40;;
55497;SDS011;41357;52.806;18.268;2023-03-14T12:02:43;6.13;;;3.40;;
55497;SDS011;41357;52.806;18.268;2023-03-14T12:10:42;17.92;;;4.88;;
55497;SDS011;41357;52.806;18.268;2023-03-14T12:13:10;12.32;;;5.40;;
55497;SDS011;41357;52.806;18.268;2023-03-14T12:15:41;8.20;;;4.10;;
55497;SDS011;41357;52.806;18.268;2023-03-14T12:20:57;12.13;;;4.75;;
55497;SDS011;41357;52.806;18.268;2023-03-14T12:23:24;16.67;;;5.30;;
55497;SDS011;41357;52.806;18.268;2023-03-14T12:26:08;8.20;;;3.55;;
55497;SDS011;41357;52.806;18.268;2023-03-14T12:28:39;9.95;;;4.35;;
55497;SDS011;41357;52.806;18.268;2023-03-14T12:34:00;11.45;;;3.63;;
55497;SDS011;41357;52.806;18.268;2023-03-14T12:37:11;7.20;;;2.78;;
55497;SDS011;41357;52.806;18.268;2023-03-14T12:39:29;9.85;;;3.35;;
55497;SDS011;41357;52.806;18.268;2023-03-14T12:42:08;12.05;;;3.22;;
55497;SDS011;41357;52.806;18.268;2023-03-14T12:44:40;7.38;;;2.83;;
55497;SDS011;41357;52.806;18.268;2023-03-14T12:49:52;10.82;;;3.50;;
55497;SDS011;41357;52.806;18.268;2023-03-14T12:52:31;9.20;;;3.70;;
55497;SDS011;41357;52.806;18.268;2023-03-14T13:02:45;8.38;;;2.75;;
55497;SDS011;41357;52.806;18.268;2023-03-14T13:05:17;9.65;;;2.75;;
55497;SDS011;41357;52.806;18.268;2023-03-14T13:17:59;9.20;;;3.38;;
55497;SDS011;41357;52.806;18.268;2023-03-14T13:22:56;7.45;;;2.80;;
55497;SDS011;41357;52.806;18.268;2023-03-14T13:25:22;7.57;;;2.40;;
55497;SDS011;41357;52.806;18.268;2023-03-14T13:27:49;11.55;;;4.68;;
55497;SDS011;41357;52.806;18.268;2023-03-14T13:32:44;5.78;;;3.40;;
55497;SDS011;41357;52.806;18.268;2023-03-14T13:35:29;11.38;;;2.90;;
55497;SDS011;41357;52.806;18.268;2023-03-14T13:37:57;6.88;;;2.22;;
55497;SDS011;41357;52.806;18.268;2023-03-14T13:40:25;5.47;;;2.35;;
55497;SDS011;41357;52.806;18.268;2023-03-14T13:43:01;6.45;;;2.55;;
55497;SDS011;41357;52.806;18.268;2023-03-14T13:45:28;7.13;;;3.15;;
55497;SDS011;41357;52.806;18.268;2023-03-14T13:47:54;8.90;;;3.88;;
55497;SDS011;41357;52.806;18.268;2023-03-14T13:50:20;7.75;;;3.00;;
55497;SDS011;41357;52.806;18.268;2023-03-14T13:52:46;7.50;;;2.97;;
55497;SDS011;41357;52.806;18.268;2023-03-14T13:55:15;10.20;;;3.90;;
55497;SDS011;41357;52.806;18.268;2023-03-14T13:57:49;6.18;;;3.28;;
55497;SDS011;41357;52.806;18.268;2023-03-14T14:00:23;6.93;;;2.95;;
55497;SDS011;41357;52.806;18.268;2023-03-14T14:02:53;8.43;;;3.20;;
55497;SDS011;41357;52.806;18.268;2023-03-14T14:05:20;5.38;;;2.80;;
55497;SDS011;41357;52.806;18.268;2023-03-14T14:07:46;9.32;;;3.35;;
55497;SDS011;41357;52.806;18.268;2023-03-14T14:10:14;7.65;;;2.90;;
55497;SDS011;41357;52.806;18.268;2023-03-14T14:12:54;9.70;;;4.20;;
55497;SDS011;41357;52.806;18.268;2023-03-14T14:15:27;6.75;;;3.08;;
55497;SDS011;41357;52.806;18.268;2023-03-14T14:17:55;7.70;;;3.22;;
55497;SDS011;41357;52.806;18.268;2023-03-14T14:23:14;8.93;;;4.18;;
55497;SDS011;41357;52.806;18.268;2023-03-14T14:25:42;8.68;;;3.35;;
55497;SDS011;41357;52.806;18.268;2023-03-14T14:33:26;10.68;;;3.75;;
55497;SDS011;41357;52.806;18.268;2023-03-14T14:35:56;8.60;;;4.28;;
55497;SDS011;41357;52.806;18.268;2023-03-14T14:38:22;8.68;;;3.58;;
55497;SDS011;41357;52.806;18.268;2023-03-14T14:40:49;14.32;;;3.40;;
55497;SDS011;41357;52.806;18.268;2023-03-14T14:43:18;8.07;;;3.20;;
55497;SDS011;41357;52.806;18.268;2023-03-14T14:45:45;8.98;;;3.53;;
55497;SDS011;41357;52.806;18.268;2023-03-14T14:48:12;8.05;;;3.33;;
55497;SDS011;41357;52.806;18.268;2023-03-14T14:50:48;9.23;;;2.97;;
55497;SDS011;41357;52.806;18.268;2023-03-14T14:56:03;10.77;;;4.28;;
55497;SDS011;41357;52.806;18.268;2023-03-14T14:58:33;15.27;;;5.40;;
55497;SDS011;41357;52.806;18.268;2023-03-14T15:03:46;8.63;;;4.32;;
55497;SDS011;41357;52.806;18.268;2023-03-14T15:06:13;11.20;;;3.92;;
55497;SDS011;41357;52.806;18.268;2023-03-14T15:08:40;9.90;;;4.07;;
55497;SDS011;41357;52.806;18.268;2023-03-14T15:11:08;9.85;;;3.67;;
55497;SDS011;41357;52.806;18.268;2023-03-14T15:13:37;8.52;;;3.10;;
55497;SDS011;41357;52.806;18.268;2023-03-14T15:16:05;7.57;;;3.17;;
55497;SDS011;41357;52.806;18.268;2023-03-14T15:18:34;10.20;;;4.15;;
55497;SDS011;41357;52.806;18.268;2023-03-14T15:21:00;6.25;;;3.50;;
55497;SDS011;41357;52.806;18.268;2023-03-14T15:23:26;5.80;;;2.80;;
55497;SDS011;41357;52.806;18.268;2023-03-14T15:25:52;8.55;;;2.80;;
55497;SDS011;41357;52.806;18.268;2023-03-14T15:28:20;7.63;;;2.55;;
55497;SDS011;41357;52.806;18.268;2023-03-14T15:30:50;7.68;;;3.08;;
55497;SDS011;41357;52.806;18.268;2023-03-14T15:33:17;6.93;;;3.40;;
55497;SDS011;41357;52.806;18.268;2023-03-14T15:35:43;7.72;;;3.10;;
55497;SDS011;41357;52.806;18.268;2023-03-14T15:38:14;8.13;;;3.17;;
55497;SDS011;41357;52.806;18.268;2023-03-14T15:40:40;10.50;;;3.28;;
55497;SDS011;41357;52.806;18.268;2023-03-14T15:43:06;7.47;;;3.70;;
55497;SDS011;41357;52.806;18.268;2023-03-14T15:45:33;11.52;;;4.15;;
55497;SDS011;41357;52.806;18.268;2023-03-14T15:47:59;7.25;;;3.50;;
55497;SDS011;41357;52.806;18.268;2023-03-14T15:50:25;10.82;;;4.07;;
55497;SDS011;41357;52.806;18.268;2023-03-14T15:52:52;8.25;;;4.35;;